createdAt,value
2023-01-20T00:01:09.761Z,12.27
2023-01-20T00:03:37.049Z,12.00
2023-01-20T00:06:04.009Z,13.40
2023-01-20T00:08:30.763Z,14.52
2023-01-20T00:10:57.385Z,14.48
2023-01-20T00:13:24.294Z,13.38
2023-01-20T00:15:50.892Z,12.07
2023-01-20T00:18:17.535Z,14.20
2023-01-20T00:20:44.231Z,14.15
2023-01-20T00:23:10.807Z,13.23
2023-01-20T00:25:37.732Z,12.15
2023-01-20T00:28:04.619Z,13.75
2023-01-20T00:30:31.727Z,13.13
2023-01-20T00:32:58.644Z,9.95
2023-01-20T00:35:25.338Z,14.07
2023-01-20T00:37:51.983Z,13.27
2023-01-20T00:40:18.642Z,14.57
2023-01-20T00:42:45.267Z,13.95
2023-01-20T00:45:12.317Z,13.23
2023-01-20T00:47:39.178Z,14.23
2023-01-20T00:50:06.119Z,12.60
2023-01-20T00:52:32.715Z,11.80
2023-01-20T00:54:59.428Z,11.40
2023-01-20T00:57:26.125Z,11.90
2023-01-20T00:59:52.795Z,10.88
2023-01-20T01:02:19.557Z,10.23
2023-01-20T01:04:50.402Z,11.13
2023-01-20T01:07:17.901Z,10.63
2023-01-20T01:09:44.720Z,12.15
2023-01-20T01:12:11.524Z,11.57
2023-01-20T01:14:38.354Z,12.35
2023-01-20T01:17:04.976Z,12.63
2023-01-20T01:19:31.650Z,12.07
2023-01-20T01:21:58.329Z,12.75
2023-01-20T01:24:24.990Z,11.77
2023-01-20T01:26:53.318Z,12.93
2023-01-20T01:29:20.329Z,13.23
2023-01-20T01:31:46.931Z,13.32
2023-01-20T01:34:15.582Z,11.15
2023-01-20T01:36:42.311Z,11.18
2023-01-20T01:39:08.952Z,12.55
2023-01-20T01:41:35.847Z,11.63
2023-01-20T01:44:09.711Z,11.55
2023-01-20T01:46:37.301Z,11.50
2023-01-20T01:49:09.048Z,11.35
2023-01-20T01:51:41.595Z,9.82
2023-01-20T01:54:19.867Z,9.82
2023-01-20T01:56:48.949Z,11.75
2023-01-20T01:59:17.054Z,12.02
2023-01-20T02:01:48.379Z,10.10
2023-01-20T02:04:17.417Z,10.90
2023-01-20T02:06:51.873Z,10.68
2023-01-20T02:09:19.053Z,10.30
2023-01-20T02:11:49.747Z,8.52
2023-01-20T02:14:22.916Z,9.80
2023-01-20T02:17:17.545Z,9.90
2023-01-20T02:20:22.005Z,9.88
2023-01-20T02:22:59.486Z,9.57
2023-01-20T02:25:44.946Z,10.50
2023-01-20T02:29:08.616Z,9.23
2023-01-20T02:31:59.718Z,10.02
2023-01-20T02:34:31.511Z,9.82
2023-01-20T02:37:04.419Z,8.95
2023-01-20T02:39:50.749Z,9.35
2023-01-20T02:42:38.012Z,10.15
2023-01-20T02:45:26.490Z,10.13
2023-01-20T02:48:03.439Z,10.10
2023-01-20T02:51:04.900Z,10.32
2023-01-20T02:53:43.563Z,9.07
2023-01-20T02:56:12.586Z,9.88
2023-01-20T02:58:50.689Z,10.10
2023-01-20T03:01:25.402Z,9.00
2023-01-20T03:03:57.408Z,8.27
2023-01-20T03:06:27.249Z,10.32
2023-01-20T03:08:58.808Z,9.95
2023-01-20T03:11:26.307Z,9.55
2023-01-20T03:14:02.114Z,8.93
2023-01-20T03:16:29.970Z,10.02
2023-01-20T03:18:56.621Z,9.40
2023-01-20T03:21:23.509Z,9.68
2023-01-20T03:23:58.281Z,9.90
2023-01-20T03:26:24.912Z,10.60
2023-01-20T03:28:52.462Z,9.43
2023-01-20T03:31:26.170Z,9.40
2023-01-20T03:33:58.605Z,10.10
2023-01-20T03:36:28.419Z,10.82
2023-01-20T03:38:56.432Z,11.05
2023-01-20T03:41:34.762Z,12.23
2023-01-20T03:44:13.337Z,9.65
2023-01-20T03:46:50.599Z,10.50
2023-01-20T03:49:27.413Z,8.90
2023-01-20T03:52:09.111Z,10.35
2023-01-20T03:54:47.547Z,10.27
2023-01-20T03:57:19.953Z,10.02
2023-01-20T03:59:50.036Z,9.90
2023-01-20T04:02:16.890Z,10.90
2023-01-20T04:04:45.141Z,10.95
2023-01-20T04:07:18.264Z,9.82
2023-01-20T04:09:50.694Z,10.15
2023-01-20T04:12:17.480Z,9.55
2023-01-20T04:14:44.151Z,10.05
2023-01-20T04:17:11.295Z,9.70
2023-01-20T04:19:37.880Z,10.20
2023-01-20T04:22:13.321Z,10.70
2023-01-20T04:24:54.354Z,10.25
2023-01-20T04:27:21.004Z,9.65
2023-01-20T04:29:47.631Z,10.55
2023-01-20T04:32:14.226Z,10.30
2023-01-20T04:34:40.822Z,9.23
2023-01-20T04:37:07.495Z,9.80
2023-01-20T04:39:34.128Z,10.63
2023-01-20T04:42:00.740Z,11.88
2023-01-20T04:44:27.324Z,11.00
2023-01-20T04:47:00.101Z,10.23
2023-01-20T04:49:26.765Z,10.27
2023-01-20T04:51:53.423Z,9.85
2023-01-20T04:54:20.168Z,10.18
2023-01-20T04:56:48.995Z,9.70
2023-01-20T04:59:15.642Z,11.40
2023-01-20T05:01:42.390Z,10.30
2023-01-20T05:04:09.107Z,11.35
2023-01-20T05:06:35.912Z,11.82
2023-01-20T05:09:02.609Z,10.43
2023-01-20T05:11:29.193Z,11.00
2023-01-20T05:13:55.804Z,10.00
2023-01-20T05:16:25.779Z,10.15
2023-01-20T05:18:52.378Z,11.55
2023-01-20T05:21:19.865Z,10.25
2023-01-20T05:23:46.496Z,12.38
2023-01-20T05:26:13.275Z,12.20
2023-01-20T05:28:40.019Z,11.45
2023-01-20T05:31:06.797Z,11.32
2023-01-20T05:33:33.571Z,12.13
2023-01-20T05:36:03.902Z,10.63
2023-01-20T05:38:30.658Z,11.98
2023-01-20T05:41:06.144Z,11.82
2023-01-20T05:43:32.978Z,12.20
2023-01-20T05:45:59.692Z,12.10
2023-01-20T05:48:27.651Z,14.70
2023-01-20T05:50:55.332Z,15.95
2023-01-20T05:53:22.306Z,15.57
2023-01-20T05:55:49.190Z,14.07
2023-01-20T05:58:15.777Z,14.10
2023-01-20T06:00:42.414Z,13.65
2023-01-20T06:03:09.069Z,15.68
2023-01-20T06:05:35.655Z,13.70
2023-01-20T06:08:03.299Z,12.93
2023-01-20T06:10:30.076Z,10.60
2023-01-20T06:12:57.516Z,11.00
2023-01-20T06:15:25.292Z,10.75
2023-01-20T06:17:52.826Z,11.18
2023-01-20T06:20:19.727Z,10.38
2023-01-20T06:22:47.792Z,8.43
2023-01-20T06:25:15.378Z,9.90
2023-01-20T06:27:42.158Z,8.48
2023-01-20T06:30:10.637Z,9.75
2023-01-20T06:32:37.659Z,13.27
2023-01-20T06:35:04.489Z,9.45
2023-01-20T06:37:31.063Z,9.88
2023-01-20T06:39:57.714Z,10.55
2023-01-20T06:42:24.395Z,8.23
2023-01-20T06:44:51.276Z,9.15
2023-01-20T06:47:17.842Z,10.02
2023-01-20T06:49:50.565Z,8.55
2023-01-20T06:52:17.229Z,9.80
2023-01-20T06:54:44.015Z,10.90
2023-01-20T06:57:10.737Z,10.60
2023-01-20T06:59:37.423Z,9.45
2023-01-20T07:02:04.135Z,10.77
2023-01-20T07:04:32.023Z,10.43
2023-01-20T07:07:00.563Z,9.88
2023-01-20T07:09:27.166Z,9.45
2023-01-20T07:11:54.641Z,10.10
2023-01-20T07:14:21.593Z,10.20
2023-01-20T07:16:48.286Z,10.43
2023-01-20T07:19:14.952Z,9.98
2023-01-20T07:21:41.540Z,10.20
2023-01-20T07:24:09.729Z,9.85
2023-01-20T07:26:36.470Z,10.43
2023-01-20T07:29:07.283Z,10.55
2023-01-20T07:31:35.298Z,9.77
2023-01-20T07:34:02.110Z,10.00
2023-01-20T07:36:30.399Z,10.50
2023-01-20T07:39:02.125Z,10.70
2023-01-20T07:41:30.826Z,10.80
2023-01-20T07:43:59.893Z,10.90
2023-01-20T07:46:29.031Z,10.40
2023-01-20T07:48:56.643Z,11.30
2023-01-20T07:51:24.141Z,11.55
2023-01-20T07:53:55.992Z,9.90
2023-01-20T07:56:27.604Z,11.65
2023-01-20T07:58:55.342Z,11.40
2023-01-20T08:01:24.047Z,12.98
2023-01-20T08:03:51.610Z,11.88
2023-01-20T08:06:21.761Z,12.60
2023-01-20T08:08:48.743Z,12.88
2023-01-20T08:11:17.183Z,10.70
2023-01-20T08:13:44.323Z,11.68
2023-01-20T08:16:13.841Z,10.60
2023-01-20T08:18:40.916Z,11.68
2023-01-20T08:21:15.156Z,14.55
2023-01-20T08:23:41.727Z,16.73
2023-01-20T08:26:08.416Z,13.75
2023-01-20T08:28:36.330Z,25.42
2023-01-20T08:31:11.825Z,17.38
2023-01-20T08:33:42.546Z,20.90
2023-01-20T08:36:22.065Z,20.90
2023-01-20T08:38:49.402Z,18.60
2023-01-20T08:41:22.452Z,17.40
2023-01-20T08:43:50.047Z,18.15
2023-01-20T08:46:19.911Z,17.60
2023-01-20T08:48:47.643Z,22.05
2023-01-20T08:51:21.005Z,18.30
2023-01-20T08:53:48.242Z,18.98
2023-01-20T08:56:15.237Z,19.67
2023-01-20T08:58:42.072Z,19.00
2023-01-20T09:01:11.197Z,16.92
2023-01-20T09:03:38.358Z,17.05
2023-01-20T09:06:06.511Z,20.02
2023-01-20T09:08:34.109Z,26.33
2023-01-20T09:11:09.999Z,25.77
2023-01-20T09:13:37.160Z,25.65
2023-01-20T09:16:04.272Z,22.73
2023-01-20T09:18:32.353Z,23.40
2023-01-20T09:20:59.568Z,20.67
2023-01-20T09:23:26.906Z,21.00
2023-01-20T09:25:53.607Z,18.80
2023-01-20T09:28:20.275Z,16.73
2023-01-20T09:30:46.934Z,16.45
2023-01-20T09:33:13.757Z,18.30
2023-01-20T09:35:40.578Z,15.63
2023-01-20T09:38:25.860Z,17.02
2023-01-20T09:41:16.837Z,16.02
2023-01-20T09:44:24.886Z,14.90
2023-01-20T09:47:19.380Z,15.98
2023-01-20T09:50:14.131Z,14.25
2023-01-20T09:53:00.395Z,17.40
2023-01-20T09:55:58.118Z,13.95
2023-01-20T09:58:57.680Z,14.43
2023-01-20T10:01:39.405Z,12.60
2023-01-20T10:04:30.909Z,12.43
2023-01-20T10:07:08.317Z,11.43
2023-01-20T10:09:45.506Z,10.75
2023-01-20T10:12:27.662Z,10.30
2023-01-20T10:15:14.272Z,10.38
2023-01-20T10:17:59.753Z,9.80
2023-01-20T10:20:42.155Z,8.98
2023-01-20T10:23:17.968Z,8.85
2023-01-20T10:25:49.994Z,12.65
2023-01-20T10:28:24.738Z,11.27
2023-01-20T10:30:51.446Z,10.70
2023-01-20T10:33:29.908Z,9.27
2023-01-20T10:35:59.659Z,8.45
2023-01-20T10:38:38.208Z,8.70
2023-01-20T10:41:21.386Z,7.53
2023-01-20T10:43:48.375Z,7.70
2023-01-20T10:46:36.796Z,8.47
2023-01-20T10:49:34.221Z,7.60
2023-01-20T10:52:13.012Z,8.70
2023-01-20T10:54:54.443Z,8.20
2023-01-20T10:57:21.537Z,7.40
2023-01-20T10:59:59.232Z,6.27
2023-01-20T11:02:29.137Z,7.27
2023-01-20T11:05:17.113Z,7.47
2023-01-20T11:07:45.672Z,6.50
2023-01-20T11:10:18.880Z,6.60
2023-01-20T11:12:49.877Z,6.90
2023-01-20T11:15:23.750Z,7.17
2023-01-20T11:18:14.402Z,6.80
2023-01-20T11:20:47.158Z,7.57
2023-01-20T11:23:26.770Z,7.10
2023-01-20T11:25:57.734Z,6.87
2023-01-20T11:28:25.175Z,6.40
2023-01-20T11:30:54.436Z,7.60
2023-01-20T11:33:24.127Z,6.60
2023-01-20T11:36:02.588Z,6.60
2023-01-20T11:38:32.931Z,6.07
2023-01-20T11:40:59.559Z,6.47
2023-01-20T11:43:37.971Z,6.67
2023-01-20T11:46:26.998Z,7.27
2023-01-20T11:49:14.184Z,6.80
2023-01-20T11:51:46.724Z,6.65
2023-01-20T11:54:20.071Z,7.90
2023-01-20T11:56:51.720Z,6.75
2023-01-20T11:59:28.417Z,6.95
2023-01-20T12:02:01.538Z,7.53
2023-01-20T12:05:03.246Z,6.72
2023-01-20T12:07:41.308Z,6.90
2023-01-20T12:10:30.186Z,6.97
2023-01-20T12:13:27.255Z,8.00
2023-01-20T12:15:56.454Z,7.07
2023-01-20T12:18:26.092Z,7.20
2023-01-20T12:21:08.077Z,7.35
2023-01-20T12:23:51.785Z,6.78
2023-01-20T12:26:20.957Z,7.30
2023-01-20T12:29:00.995Z,7.05
2023-01-20T12:31:27.802Z,6.20
2023-01-20T12:34:02.387Z,8.18
2023-01-20T12:36:47.163Z,7.40
2023-01-20T12:39:40.909Z,6.22
2023-01-20T12:42:10.576Z,6.20
2023-01-20T12:44:53.916Z,6.95
2023-01-20T12:47:41.565Z,6.80
2023-01-20T12:50:17.809Z,5.95
2023-01-20T12:53:03.951Z,6.65
2023-01-20T12:55:41.536Z,6.82
2023-01-20T12:58:54.051Z,6.07
2023-01-20T13:01:55.975Z,8.18
2023-01-20T13:04:36.752Z,6.50
2023-01-20T13:07:33.264Z,7.07
2023-01-20T13:10:21.716Z,7.38
2023-01-20T13:13:12.091Z,8.02
2023-01-20T13:16:22.057Z,7.10
2023-01-20T13:19:15.369Z,6.82
2023-01-20T13:21:42.580Z,7.40
2023-01-20T13:24:20.352Z,7.55
2023-01-20T13:26:48.878Z,7.88
2023-01-20T13:29:34.211Z,6.93
2023-01-20T13:32:00.989Z,7.50
2023-01-20T13:34:27.621Z,6.43
2023-01-20T13:37:03.656Z,7.65
2023-01-20T13:39:41.310Z,7.00
2023-01-20T13:42:41.050Z,8.98
2023-01-20T13:45:14.314Z,7.22
2023-01-20T13:47:53.427Z,7.50
2023-01-20T13:50:30.518Z,7.25
2023-01-20T13:53:00.094Z,7.65
2023-01-20T13:55:52.378Z,7.10
2023-01-20T13:58:19.768Z,7.88
2023-01-20T14:00:49.960Z,7.55
2023-01-20T14:03:19.327Z,8.13
2023-01-20T14:06:12.216Z,8.10
2023-01-20T14:08:41.789Z,7.40
2023-01-20T14:11:25.447Z,8.90
2023-01-20T14:13:54.687Z,11.18
2023-01-20T14:16:34.496Z,11.35
2023-01-20T14:19:34.547Z,9.05
2023-01-20T14:22:22.587Z,8.15
2023-01-20T14:24:52.697Z,8.65
2023-01-20T14:27:41.798Z,10.65
2023-01-20T14:30:16.779Z,8.70
2023-01-20T14:32:43.629Z,10.27
2023-01-20T14:35:28.938Z,10.77
2023-01-20T14:37:55.702Z,9.25
2023-01-20T14:40:29.649Z,9.15
2023-01-20T14:43:06.106Z,8.18
2023-01-20T14:45:34.133Z,9.25
2023-01-20T14:48:02.725Z,8.13
2023-01-20T14:50:30.047Z,9.35
2023-01-20T14:52:57.858Z,9.25
2023-01-20T14:55:33.101Z,9.13
2023-01-20T14:58:00.587Z,9.40
2023-01-20T15:00:33.888Z,9.05
2023-01-20T15:03:20.734Z,9.07
2023-01-20T15:05:58.263Z,9.50
2023-01-20T15:08:56.725Z,8.63
2023-01-20T15:11:28.305Z,9.25
2023-01-20T15:14:09.458Z,9.35
2023-01-20T15:16:36.035Z,10.65
2023-01-20T15:19:31.781Z,9.45
2023-01-20T15:22:20.241Z,10.35
2023-01-20T15:24:54.740Z,8.13
2023-01-20T15:27:31.590Z,9.18
2023-01-20T15:30:19.328Z,8.73
2023-01-20T15:32:50.775Z,9.05
2023-01-20T15:35:22.987Z,9.70
2023-01-20T15:37:50.119Z,10.32
2023-01-20T15:40:20.004Z,10.13
2023-01-20T15:42:47.984Z,10.23
2023-01-20T15:45:15.793Z,9.45
2023-01-20T15:47:44.155Z,9.70
2023-01-20T15:50:20.772Z,10.20
2023-01-20T15:52:47.584Z,10.30
2023-01-20T15:55:19.159Z,11.30
2023-01-20T15:57:49.399Z,10.55
2023-01-20T16:00:23.838Z,11.50
2023-01-20T16:02:50.781Z,12.52
2023-01-20T16:05:18.003Z,10.75
2023-01-20T16:07:47.033Z,10.60
2023-01-20T16:10:16.237Z,10.30
2023-01-20T16:12:43.847Z,9.70
2023-01-20T16:15:15.392Z,8.85
2023-01-20T16:17:42.280Z,10.18
2023-01-20T16:20:22.974Z,9.50
2023-01-20T16:22:49.636Z,10.45
2023-01-20T16:25:23.653Z,10.77
2023-01-20T16:27:50.262Z,12.73
2023-01-20T16:30:19.949Z,13.88
2023-01-20T16:32:46.945Z,14.15
2023-01-20T16:35:15.220Z,13.00
2023-01-20T16:37:42.576Z,13.98
2023-01-20T16:40:21.075Z,12.65
2023-01-20T16:42:48.006Z,11.98
2023-01-20T16:45:27.541Z,15.25
2023-01-20T16:47:54.983Z,10.30
2023-01-20T16:50:22.081Z,11.00
2023-01-20T16:52:48.748Z,10.90
2023-01-20T16:55:15.423Z,10.07
2023-01-20T16:57:42.463Z,11.02
2023-01-20T17:00:09.985Z,10.43
2023-01-20T17:02:38.875Z,10.63
2023-01-20T17:05:07.642Z,9.88
2023-01-20T17:07:35.003Z,10.25
2023-01-20T17:10:01.862Z,10.30
2023-01-20T17:12:28.544Z,12.05
2023-01-20T17:14:55.152Z,12.45
2023-01-20T17:17:22.856Z,10.77
2023-01-20T17:19:49.472Z,9.77
2023-01-20T17:22:17.785Z,10.10
2023-01-20T17:24:44.544Z,11.07
2023-01-20T17:27:11.222Z,10.32
2023-01-20T17:29:38.290Z,10.95
2023-01-20T17:32:05.005Z,10.05
2023-01-20T17:34:31.699Z,8.70
2023-01-20T17:36:58.279Z,9.52
2023-01-20T17:39:27.035Z,9.45
2023-01-20T17:41:53.608Z,8.88
2023-01-20T17:44:20.300Z,9.45
2023-01-20T17:46:49.877Z,10.70
2023-01-20T17:49:16.855Z,11.23
2023-01-20T17:51:44.206Z,10.43
2023-01-20T17:54:10.853Z,11.23
2023-01-20T17:56:37.489Z,11.32
2023-01-20T17:59:04.125Z,10.93
2023-01-20T18:01:34.879Z,12.98
2023-01-20T18:04:04.212Z,11.32
2023-01-20T18:06:35.553Z,12.20
2023-01-20T18:09:02.335Z,11.18
2023-01-20T18:11:35.303Z,10.55
2023-01-20T18:14:04.001Z,13.18
2023-01-20T18:16:33.246Z,13.57
2023-01-20T18:18:59.920Z,15.43
2023-01-20T18:21:30.811Z,13.00
2023-01-20T18:23:58.595Z,10.75
2023-01-20T18:26:29.343Z,11.60
2023-01-20T18:28:57.560Z,11.85
2023-01-20T18:31:25.305Z,11.18
2023-01-20T18:34:03.745Z,10.43
2023-01-20T18:36:33.221Z,9.73
2023-01-20T18:39:04.179Z,11.40
2023-01-20T18:41:32.528Z,11.23
2023-01-20T18:43:59.824Z,10.32
2023-01-20T18:46:27.355Z,12.55
2023-01-20T18:48:56.238Z,12.10
2023-01-20T18:51:26.583Z,10.80
2023-01-20T18:54:09.641Z,11.00
2023-01-20T18:56:36.665Z,12.70
2023-01-20T18:59:05.194Z,12.60
2023-01-20T19:01:34.967Z,11.32
2023-01-20T19:04:03.346Z,12.35
2023-01-20T19:06:34.346Z,12.52
2023-01-20T19:09:01.534Z,13.30
2023-01-20T19:11:35.664Z,11.95
2023-01-20T19:14:03.708Z,12.15
2023-01-20T19:16:32.560Z,15.07
2023-01-20T19:19:03.235Z,10.73
2023-01-20T19:21:32.443Z,13.75
2023-01-20T19:24:01.575Z,13.00
2023-01-20T19:26:28.799Z,13.10
2023-01-20T19:29:02.852Z,12.15
2023-01-20T19:31:31.482Z,11.38
2023-01-20T19:34:12.819Z,10.82
2023-01-20T19:36:39.575Z,11.10
2023-01-20T19:39:06.531Z,12.10
2023-01-20T19:41:34.359Z,10.68
2023-01-20T19:44:03.201Z,11.23
2023-01-20T19:46:32.337Z,10.48
2023-01-20T19:48:59.895Z,10.90
2023-01-20T19:51:32.195Z,10.18
2023-01-20T19:54:04.214Z,12.32
2023-01-20T19:56:37.031Z,10.20
2023-01-20T19:59:05.875Z,12.13
2023-01-20T20:01:34.620Z,11.77
2023-01-20T20:04:09.644Z,9.82
2023-01-20T20:06:48.445Z,11.00
2023-01-20T20:09:20.342Z,7.50
2023-01-20T20:11:56.715Z,7.75
2023-01-20T20:14:23.805Z,7.68
2023-01-20T20:16:57.766Z,7.47
2023-01-20T20:19:24.554Z,9.27
2023-01-20T20:21:52.126Z,9.57
2023-01-20T20:24:18.828Z,8.80
2023-01-20T20:26:46.955Z,9.23
2023-01-20T20:29:15.223Z,10.65
2023-01-20T20:31:41.945Z,10.65
2023-01-20T20:34:16.745Z,9.23
2023-01-20T20:36:43.767Z,11.98
2023-01-20T20:39:19.582Z,13.27
2023-01-20T20:41:47.101Z,11.65
2023-01-20T20:44:13.876Z,13.38
2023-01-20T20:46:40.920Z,13.80
2023-01-20T20:49:15.718Z,12.07
2023-01-20T20:51:42.506Z,13.90
2023-01-20T20:54:09.459Z,14.98
2023-01-20T20:56:39.260Z,14.02
2023-01-20T20:59:05.957Z,16.75
2023-01-20T21:01:34.258Z,14.50
2023-01-20T21:04:03.034Z,15.25
2023-01-20T21:06:30.479Z,18.73
2023-01-20T21:08:58.533Z,17.25
2023-01-20T21:11:25.478Z,19.85
2023-01-20T21:13:53.521Z,21.60
2023-01-20T21:16:29.460Z,17.83
2023-01-20T21:19:01.594Z,25.00
2023-01-20T21:21:29.163Z,19.15
2023-01-20T21:23:57.504Z,20.58
2023-01-20T21:26:27.720Z,17.55
2023-01-20T21:28:56.427Z,14.40
2023-01-20T21:31:26.519Z,21.15
2023-01-20T21:33:56.846Z,22.73
2023-01-20T21:36:24.227Z,26.85
2023-01-20T21:38:51.315Z,37.92
2023-01-20T21:41:18.852Z,21.92
2023-01-20T21:44:05.569Z,21.75
2023-01-20T21:46:36.489Z,50.40
2023-01-20T21:49:23.928Z,26.95
2023-01-20T21:52:09.361Z,49.90
2023-01-20T21:54:36.322Z,29.42
2023-01-20T21:57:03.040Z,23.13
2023-01-20T21:59:30.194Z,23.13
2023-01-20T22:01:56.969Z,20.20
2023-01-20T22:04:26.732Z,32.10
2023-01-20T22:06:53.505Z,53.72
2023-01-20T22:09:20.095Z,29.67
2023-01-20T22:11:47.098Z,38.83
2023-01-20T22:14:13.702Z,22.15
2023-01-20T22:16:40.583Z,36.83
2023-01-20T22:19:22.364Z,19.92
2023-01-20T22:21:48.988Z,18.75
2023-01-20T22:24:15.612Z,24.58
2023-01-20T22:26:42.296Z,31.88
2023-01-20T22:29:09.377Z,30.33
2023-01-20T22:31:45.857Z,19.42
2023-01-20T22:34:12.804Z,16.23
2023-01-20T22:36:39.593Z,33.40
2023-01-20T22:39:06.783Z,21.30
2023-01-20T22:41:33.580Z,22.00
2023-01-20T22:44:00.175Z,23.75
2023-01-20T22:46:28.815Z,46.85
2023-01-20T22:48:59.417Z,39.38
2023-01-20T22:51:44.536Z,27.65
2023-01-20T22:54:11.163Z,22.30
2023-01-20T22:56:38.968Z,15.55
2023-01-20T22:59:06.301Z,15.48
2023-01-20T23:01:35.298Z,15.65
2023-01-20T23:04:04.730Z,15.32
2023-01-20T23:06:33.997Z,14.18
2023-01-20T23:09:02.636Z,14.30
2023-01-20T23:11:36.351Z,14.50
2023-01-20T23:14:03.341Z,14.20
2023-01-20T23:16:30.043Z,15.98
2023-01-20T23:18:56.652Z,15.60
2023-01-20T23:21:24.328Z,19.33
2023-01-20T23:23:54.337Z,16.50
2023-01-20T23:26:23.711Z,16.98
2023-01-20T23:28:50.545Z,16.90
2023-01-20T23:31:24.827Z,16.10
2023-01-20T23:33:53.592Z,18.52
2023-01-20T23:36:23.292Z,15.93
2023-01-20T23:38:50.493Z,14.05
2023-01-20T23:41:34.412Z,13.27
2023-01-20T23:44:02.625Z,14.27
2023-01-20T23:46:29.385Z,15.07
2023-01-20T23:48:56.060Z,13.20
2023-01-20T23:51:22.768Z,12.27
2023-01-20T23:53:49.669Z,12.68
2023-01-20T23:56:18.971Z,13.63
2023-01-20T23:58:46.187Z,10.98
